sensor_id;sensor_type;location;lat;lon;timestamp;P1;durP1;ratioP1;P2;durP2;ratioP2
11935;SDS011;6027;48.576;9.180;2023-10-31T00:00:36;1.20;;;0.55;;
11935;SDS011;6027;48.576;9.180;2023-10-31T00:03:02;0.43;;;0.43;;
11935;SDS011;6027;48.576;9.180;2023-10-31T00:05:27;0.38;;;0.38;;
11935;SDS011;6027;48.576;9.180;2023-10-31T00:07:53;0.50;;;0.50;;
11935;SDS011;6027;48.576;9.180;2023-10-31T00:10:18;1.15;;;0.50;;
11935;SDS011;6027;48.576;9.180;2023-10-31T00:12:44;0.45;;;0.35;;
11935;SDS011;6027;48.576;9.180;2023-10-31T00:15:09;0.80;;;0.60;;
11935;SDS011;6027;48.576;9.180;2023-10-31T00:17:35;1.85;;;0.45;;
11935;SDS011;6027;48.576;9.180;2023-10-31T00:20:00;0.30;;;0.30;;
11935;SDS011;6027;48.576;9.180;2023-10-31T00:22:26;2.35;;;0.50;;
11935;SDS011;6027;48.576;9.180;2023-10-31T00:24:51;0.40;;;0.40;;
11935;SDS011;6027;48.576;9.180;2023-10-31T00:27:16;4.05;;;0.40;;
11935;SDS011;6027;48.576;9.180;2023-10-31T00:29:42;0.30;;;0.30;;
11935;SDS011;6027;48.576;9.180;2023-10-31T00:32:08;0.40;;;0.40;;
11935;SDS011;6027;48.576;9.180;2023-10-31T00:34:33;0.47;;;0.47;;
11935;SDS011;6027;48.576;9.180;2023-10-31T00:36:58;0.75;;;0.40;;
11935;SDS011;6027;48.576;9.180;2023-10-31T00:39:24;0.93;;;0.50;;
11935;SDS011;6027;48.576;9.180;2023-10-31T00:41:49;0.55;;;0.40;;
11935;SDS011;6027;48.576;9.180;2023-10-31T00:44:15;0.47;;;0.47;;
11935;SDS011;6027;48.576;9.180;2023-10-31T00:46:40;0.50;;;0.50;;
11935;SDS011;6027;48.576;9.180;2023-10-31T00:49:05;0.77;;;0.38;;
11935;SDS011;6027;48.576;9.180;2023-10-31T00:51:31;0.70;;;0.40;;
11935;SDS011;6027;48.576;9.180;2023-10-31T00:53:57;1.70;;;0.57;;
11935;SDS011;6027;48.576;9.180;2023-10-31T00:56:22;0.80;;;0.50;;
11935;SDS011;6027;48.576;9.180;2023-10-31T00:58:48;1.02;;;0.50;;
11935;SDS011;6027;48.576;9.180;2023-10-31T01:01:13;1.05;;;0.52;;
11935;SDS011;6027;48.576;9.180;2023-10-31T01:03:39;0.43;;;0.43;;
11935;SDS011;6027;48.576;9.180;2023-10-31T01:06:05;0.88;;;0.50;;
11935;SDS011;6027;48.576;9.180;2023-10-31T01:08:30;1.40;;;0.47;;
11935;SDS011;6027;48.576;9.180;2023-10-31T01:10:56;0.50;;;0.50;;
11935;SDS011;6027;48.576;9.180;2023-10-31T01:13:21;1.25;;;0.50;;
11935;SDS011;6027;48.576;9.180;2023-10-31T01:15:47;2.90;;;0.68;;
11935;SDS011;6027;48.576;9.180;2023-10-31T01:18:12;1.63;;;0.60;;
11935;SDS011;6027;48.576;9.180;2023-10-31T01:20:38;0.50;;;0.50;;
11935;SDS011;6027;48.576;9.180;2023-10-31T01:23:03;0.30;;;0.30;;
11935;SDS011;6027;48.576;9.180;2023-10-31T01:25:29;1.25;;;0.50;;
11935;SDS011;6027;48.576;9.180;2023-10-31T01:27:54;0.90;;;0.38;;
11935;SDS011;6027;48.576;9.180;2023-10-31T01:30:20;0.60;;;0.52;;
11935;SDS011;6027;48.576;9.180;2023-10-31T01:32:46;2.75;;;0.60;;
11935;SDS011;6027;48.576;9.180;2023-10-31T01:35:11;1.05;;;0.70;;
11935;SDS011;6027;48.576;9.180;2023-10-31T01:37:36;0.82;;;0.55;;
11935;SDS011;6027;48.576;9.180;2023-10-31T01:40:02;0.73;;;0.63;;
11935;SDS011;6027;48.576;9.180;2023-10-31T01:42:29;0.98;;;0.40;;
11935;SDS011;6027;48.576;9.180;2023-10-31T01:44:54;1.13;;;0.40;;
11935;SDS011;6027;48.576;9.180;2023-10-31T01:47:20;0.40;;;0.40;;
11935;SDS011;6027;48.576;9.180;2023-10-31T01:49:45;1.55;;;0.50;;
11935;SDS011;6027;48.576;9.180;2023-10-31T01:52:11;0.73;;;0.50;;
11935;SDS011;6027;48.576;9.180;2023-10-31T01:54:36;0.88;;;0.60;;
11935;SDS011;6027;48.576;9.180;2023-10-31T01:57:02;0.88;;;0.50;;
11935;SDS011;6027;48.576;9.180;2023-10-31T01:59:30;0.95;;;0.60;;
11935;SDS011;6027;48.576;9.180;2023-10-31T02:01:56;3.58;;;0.80;;
11935;SDS011;6027;48.576;9.180;2023-10-31T02:04:23;0.70;;;0.50;;
11935;SDS011;6027;48.576;9.180;2023-10-31T02:06:49;4.43;;;0.43;;
11935;SDS011;6027;48.576;9.180;2023-10-31T02:09:14;2.63;;;0.60;;
11935;SDS011;6027;48.576;9.180;2023-10-31T02:11:41;0.40;;;0.40;;
11935;SDS011;6027;48.576;9.180;2023-10-31T02:14:06;0.70;;;0.60;;
11935;SDS011;6027;48.576;9.180;2023-10-31T02:16:31;0.68;;;0.60;;
11935;SDS011;6027;48.576;9.180;2023-10-31T02:18:57;0.80;;;0.35;;
11935;SDS011;6027;48.576;9.180;2023-10-31T02:21:22;0.80;;;0.55;;
11935;SDS011;6027;48.576;9.180;2023-10-31T02:24:00;1.85;;;0.60;;
11935;SDS011;6027;48.576;9.180;2023-10-31T02:26:30;2.15;;;0.50;;
11935;SDS011;6027;48.576;9.180;2023-10-31T02:28:57;1.42;;;0.50;;
11935;SDS011;6027;48.576;9.180;2023-10-31T02:31:23;1.10;;;0.50;;
11935;SDS011;6027;48.576;9.180;2023-10-31T02:33:48;2.15;;;0.60;;
11935;SDS011;6027;48.576;9.180;2023-10-31T02:36:14;0.68;;;0.43;;
11935;SDS011;6027;48.576;9.180;2023-10-31T02:38:40;0.60;;;0.60;;
11935;SDS011;6027;48.576;9.180;2023-10-31T02:41:05;0.60;;;0.60;;
11935;SDS011;6027;48.576;9.180;2023-10-31T02:43:31;0.57;;;0.57;;
11935;SDS011;6027;48.576;9.180;2023-10-31T02:45:56;2.75;;;0.68;;
11935;SDS011;6027;48.576;9.180;2023-10-31T02:48:22;0.50;;;0.50;;
11935;SDS011;6027;48.576;9.180;2023-10-31T02:50:48;1.08;;;0.68;;
11935;SDS011;6027;48.576;9.180;2023-10-31T02:53:14;0.70;;;0.60;;
11935;SDS011;6027;48.576;9.180;2023-10-31T02:55:39;1.00;;;0.73;;
11935;SDS011;6027;48.576;9.180;2023-10-31T02:58:05;1.48;;;0.70;;
11935;SDS011;6027;48.576;9.180;2023-10-31T03:00:30;1.13;;;0.65;;
11935;SDS011;6027;48.576;9.180;2023-10-31T03:02:56;1.27;;;0.70;;
11935;SDS011;6027;48.576;9.180;2023-10-31T03:05:21;2.42;;;0.60;;
11935;SDS011;6027;48.576;9.180;2023-10-31T03:07:47;1.85;;;0.70;;
11935;SDS011;6027;48.576;9.180;2023-10-31T03:10:12;0.68;;;0.60;;
11935;SDS011;6027;48.576;9.180;2023-10-31T03:12:37;0.50;;;0.50;;
11935;SDS011;6027;48.576;9.180;2023-10-31T03:15:03;0.85;;;0.73;;
11935;SDS011;6027;48.576;9.180;2023-10-31T03:17:29;1.27;;;0.77;;
11935;SDS011;6027;48.576;9.180;2023-10-31T03:19:55;1.55;;;0.82;;
11935;SDS011;6027;48.576;9.180;2023-10-31T03:22:20;0.60;;;0.60;;
11935;SDS011;6027;48.576;9.180;2023-10-31T03:24:46;3.05;;;0.68;;
11935;SDS011;6027;48.576;9.180;2023-10-31T03:27:11;1.85;;;0.70;;
11935;SDS011;6027;48.576;9.180;2023-10-31T03:29:36;2.05;;;0.82;;
11935;SDS011;6027;48.576;9.180;2023-10-31T03:32:02;0.50;;;0.40;;
11935;SDS011;6027;48.576;9.180;2023-10-31T03:34:27;1.58;;;0.60;;
11935;SDS011;6027;48.576;9.180;2023-10-31T03:36:53;0.77;;;0.50;;
11935;SDS011;6027;48.576;9.180;2023-10-31T03:39:18;0.60;;;0.40;;
11935;SDS011;6027;48.576;9.180;2023-10-31T03:41:44;0.70;;;0.50;;
11935;SDS011;6027;48.576;9.180;2023-10-31T03:44:11;1.00;;;0.50;;
11935;SDS011;6027;48.576;9.180;2023-10-31T03:46:37;0.82;;;0.45;;
11935;SDS011;6027;48.576;9.180;2023-10-31T03:49:02;0.68;;;0.50;;
11935;SDS011;6027;48.576;9.180;2023-10-31T03:51:28;1.15;;;0.60;;
11935;SDS011;6027;48.576;9.180;2023-10-31T03:53:53;0.93;;;0.50;;
11935;SDS011;6027;48.576;9.180;2023-10-31T03:56:18;1.00;;;0.43;;
11935;SDS011;6027;48.576;9.180;2023-10-31T03:58:44;0.95;;;0.63;;
11935;SDS011;6027;48.576;9.180;2023-10-31T04:01:09;1.30;;;0.68;;
11935;SDS011;6027;48.576;9.180;2023-10-31T04:03:35;2.53;;;0.60;;
11935;SDS011;6027;48.576;9.180;2023-10-31T04:06:00;1.00;;;0.63;;
11935;SDS011;6027;48.576;9.180;2023-10-31T04:08:26;0.82;;;0.75;;
11935;SDS011;6027;48.576;9.180;2023-10-31T04:10:51;1.13;;;0.63;;
11935;SDS011;6027;48.576;9.180;2023-10-31T04:13:16;0.77;;;0.70;;
11935;SDS011;6027;48.576;9.180;2023-10-31T04:15:42;1.58;;;0.70;;
11935;SDS011;6027;48.576;9.180;2023-10-31T04:18:07;0.90;;;0.80;;
11935;SDS011;6027;48.576;9.180;2023-10-31T04:20:33;1.63;;;0.90;;
11935;SDS011;6027;48.576;9.180;2023-10-31T04:22:58;1.33;;;1.00;;
11935;SDS011;6027;48.576;9.180;2023-10-31T04:25:24;3.13;;;1.17;;
11935;SDS011;6027;48.576;9.180;2023-10-31T04:27:52;1.55;;;1.30;;
11935;SDS011;6027;48.576;9.180;2023-10-31T04:30:17;1.88;;;1.30;;
11935;SDS011;6027;48.576;9.180;2023-10-31T04:32:42;1.50;;;1.17;;
11935;SDS011;6027;48.576;9.180;2023-10-31T04:35:08;2.28;;;1.48;;
11935;SDS011;6027;48.576;9.180;2023-10-31T04:37:33;2.03;;;1.20;;
11935;SDS011;6027;48.576;9.180;2023-10-31T04:39:59;1.85;;;1.10;;
11935;SDS011;6027;48.576;9.180;2023-10-31T04:42:24;2.95;;;1.27;;
11935;SDS011;6027;48.576;9.180;2023-10-31T04:44:49;1.33;;;1.23;;
11935;SDS011;6027;48.576;9.180;2023-10-31T04:47:15;1.40;;;1.30;;
11935;SDS011;6027;48.576;9.180;2023-10-31T04:49:40;1.40;;;1.30;;
11935;SDS011;6027;48.576;9.180;2023-10-31T04:52:06;1.42;;;1.30;;
11935;SDS011;6027;48.576;9.180;2023-10-31T04:54:31;1.83;;;1.40;;
11935;SDS011;6027;48.576;9.180;2023-10-31T04:56:57;3.15;;;1.50;;
11935;SDS011;6027;48.576;9.180;2023-10-31T04:59:22;2.13;;;1.60;;
11935;SDS011;6027;48.576;9.180;2023-10-31T05:01:48;5.10;;;1.65;;
11935;SDS011;6027;48.576;9.180;2023-10-31T05:04:15;2.05;;;1.50;;
11935;SDS011;6027;48.576;9.180;2023-10-31T05:06:40;2.50;;;1.60;;
11935;SDS011;6027;48.576;9.180;2023-10-31T05:09:06;2.35;;;1.60;;
11935;SDS011;6027;48.576;9.180;2023-10-31T05:11:32;1.77;;;1.45;;
11935;SDS011;6027;48.576;9.180;2023-10-31T05:13:57;2.13;;;1.48;;
11935;SDS011;6027;48.576;9.180;2023-10-31T05:16:22;2.97;;;1.42;;
11935;SDS011;6027;48.576;9.180;2023-10-31T05:18:48;2.25;;;1.40;;
11935;SDS011;6027;48.576;9.180;2023-10-31T05:21:18;1.38;;;1.20;;
11935;SDS011;6027;48.576;9.180;2023-10-31T05:23:45;1.67;;;1.30;;
11935;SDS011;6027;48.576;9.180;2023-10-31T05:26:11;1.45;;;1.35;;
11935;SDS011;6027;48.576;9.180;2023-10-31T05:28:36;2.35;;;1.30;;
11935;SDS011;6027;48.576;9.180;2023-10-31T05:31:01;2.20;;;1.10;;
11935;SDS011;6027;48.576;9.180;2023-10-31T05:33:28;2.20;;;1.10;;
11935;SDS011;6027;48.576;9.180;2023-10-31T05:35:54;1.63;;;1.00;;
11935;SDS011;6027;48.576;9.180;2023-10-31T05:38:19;1.75;;;1.27;;
11935;SDS011;6027;48.576;9.180;2023-10-31T05:40:45;2.00;;;1.30;;
11935;SDS011;6027;48.576;9.180;2023-10-31T05:43:10;1.27;;;0.90;;
11935;SDS011;6027;48.576;9.180;2023-10-31T05:45:36;1.35;;;1.20;;
11935;SDS011;6027;48.576;9.180;2023-10-31T05:48:01;1.70;;;1.42;;
11935;SDS011;6027;48.576;9.180;2023-10-31T05:50:27;2.40;;;2.17;;
11935;SDS011;6027;48.576;9.180;2023-10-31T05:52:53;1.80;;;1.30;;
11935;SDS011;6027;48.576;9.180;2023-10-31T05:55:18;1.73;;;1.60;;
11935;SDS011;6027;48.576;9.180;2023-10-31T05:57:44;2.15;;;1.30;;
11935;SDS011;6027;48.576;9.180;2023-10-31T06:00:09;0.95;;;0.80;;
11935;SDS011;6027;48.576;9.180;2023-10-31T06:02:35;1.10;;;0.93;;
11935;SDS011;6027;48.576;9.180;2023-10-31T06:05:01;1.42;;;1.08;;
11935;SDS011;6027;48.576;9.180;2023-10-31T06:07:26;0.80;;;0.80;;
11935;SDS011;6027;48.576;9.180;2023-10-31T06:09:51;3.28;;;1.05;;
11935;SDS011;6027;48.576;9.180;2023-10-31T06:12:17;1.75;;;0.98;;
11935;SDS011;6027;48.576;9.180;2023-10-31T06:14:42;3.58;;;1.55;;
11935;SDS011;6027;48.576;9.180;2023-10-31T06:17:09;2.55;;;1.80;;
11935;SDS011;6027;48.576;9.180;2023-10-31T06:19:34;2.10;;;1.90;;
11935;SDS011;6027;48.576;9.180;2023-10-31T06:22:01;2.50;;;2.00;;
11935;SDS011;6027;48.576;9.180;2023-10-31T06:24:26;3.55;;;2.80;;
11935;SDS011;6027;48.576;9.180;2023-10-31T06:26:52;5.85;;;2.15;;
11935;SDS011;6027;48.576;9.180;2023-10-31T06:29:17;3.58;;;2.15;;
11935;SDS011;6027;48.576;9.180;2023-10-31T06:31:43;2.17;;;1.55;;
11935;SDS011;6027;48.576;9.180;2023-10-31T06:34:08;2.15;;;1.40;;
11935;SDS011;6027;48.576;9.180;2023-10-31T06:36:34;1.40;;;1.30;;
11935;SDS011;6027;48.576;9.180;2023-10-31T06:38:59;2.38;;;1.30;;
11935;SDS011;6027;48.576;9.180;2023-10-31T06:41:25;3.58;;;1.40;;
11935;SDS011;6027;48.576;9.180;2023-10-31T06:43:51;4.57;;;1.80;;
11935;SDS011;6027;48.576;9.180;2023-10-31T06:46:16;1.40;;;1.30;;
11935;SDS011;6027;48.576;9.180;2023-10-31T06:48:42;3.72;;;1.23;;
11935;SDS011;6027;48.576;9.180;2023-10-31T06:51:07;3.53;;;1.27;;
11935;SDS011;6027;48.576;9.180;2023-10-31T06:53:33;1.85;;;1.50;;
11935;SDS011;6027;48.576;9.180;2023-10-31T06:55:58;1.85;;;1.67;;
11935;SDS011;6027;48.576;9.180;2023-10-31T06:58:24;3.67;;;1.75;;
11935;SDS011;6027;48.576;9.180;2023-10-31T07:00:49;3.15;;;1.70;;
11935;SDS011;6027;48.576;9.180;2023-10-31T07:03:15;1.88;;;1.60;;
11935;SDS011;6027;48.576;9.180;2023-10-31T07:05:41;1.58;;;1.48;;
11935;SDS011;6027;48.576;9.180;2023-10-31T07:08:07;3.38;;;1.48;;
11935;SDS011;6027;48.576;9.180;2023-10-31T07:10:32;2.35;;;1.85;;
11935;SDS011;6027;48.576;9.180;2023-10-31T07:12:58;1.88;;;1.55;;
11935;SDS011;6027;48.576;9.180;2023-10-31T07:15:24;3.25;;;1.90;;
11935;SDS011;6027;48.576;9.180;2023-10-31T07:17:50;2.83;;;1.50;;
11935;SDS011;6027;48.576;9.180;2023-10-31T07:20:16;1.70;;;1.60;;
11935;SDS011;6027;48.576;9.180;2023-10-31T07:22:42;2.33;;;1.23;;
11935;SDS011;6027;48.576;9.180;2023-10-31T07:25:07;3.28;;;1.00;;
11935;SDS011;6027;48.576;9.180;2023-10-31T07:27:33;1.63;;;1.10;;
11935;SDS011;6027;48.576;9.180;2023-10-31T07:29:58;1.40;;;1.02;;
11935;SDS011;6027;48.576;9.180;2023-10-31T07:32:24;1.77;;;1.23;;
11935;SDS011;6027;48.576;9.180;2023-10-31T07:34:50;2.85;;;0.90;;
11935;SDS011;6027;48.576;9.180;2023-10-31T07:37:16;2.60;;;1.10;;
11935;SDS011;6027;48.576;9.180;2023-10-31T07:39:42;2.53;;;1.33;;
11935;SDS011;6027;48.576;9.180;2023-10-31T07:42:07;2.72;;;1.20;;
11935;SDS011;6027;48.576;9.180;2023-10-31T07:44:33;2.28;;;1.13;;
11935;SDS011;6027;48.576;9.180;2023-10-31T07:46:59;4.32;;;1.30;;
11935;SDS011;6027;48.576;9.180;2023-10-31T07:49:24;2.95;;;1.38;;
11935;SDS011;6027;48.576;9.180;2023-10-31T07:51:50;1.95;;;1.25;;
11935;SDS011;6027;48.576;9.180;2023-10-31T07:54:15;1.88;;;1.17;;
11935;SDS011;6027;48.576;9.180;2023-10-31T07:56:41;3.13;;;1.10;;
11935;SDS011;6027;48.576;9.180;2023-10-31T07:59:07;3.15;;;1.23;;
11935;SDS011;6027;48.576;9.180;2023-10-31T08:01:33;4.15;;;1.10;;
11935;SDS011;6027;48.576;9.180;2023-10-31T08:03:59;1.20;;;1.00;;
11935;SDS011;6027;48.576;9.180;2023-10-31T08:06:24;1.20;;;0.90;;
11935;SDS011;6027;48.576;9.180;2023-10-31T08:08:50;2.83;;;1.08;;
11935;SDS011;6027;48.576;9.180;2023-10-31T08:11:15;2.17;;;0.82;;
11935;SDS011;6027;48.576;9.180;2023-10-31T08:13:40;1.23;;;0.88;;
11935;SDS011;6027;48.576;9.180;2023-10-31T08:16:06;2.53;;;1.00;;
11935;SDS011;6027;48.576;9.180;2023-10-31T08:18:32;1.67;;;0.90;;
11935;SDS011;6027;48.576;9.180;2023-10-31T08:20:58;2.92;;;1.10;;
11935;SDS011;6027;48.576;9.180;2023-10-31T08:23:24;3.08;;;0.90;;
11935;SDS011;6027;48.576;9.180;2023-10-31T08:25:50;1.73;;;0.95;;
11935;SDS011;6027;48.576;9.180;2023-10-31T08:28:16;1.90;;;1.00;;
11935;SDS011;6027;48.576;9.180;2023-10-31T08:30:41;2.47;;;1.00;;
11935;SDS011;6027;48.576;9.180;2023-10-31T08:33:07;1.35;;;0.90;;
11935;SDS011;6027;48.576;9.180;2023-10-31T08:35:32;1.95;;;1.10;;
11935;SDS011;6027;48.576;9.180;2023-10-31T08:37:58;2.33;;;0.90;;
11935;SDS011;6027;48.576;9.180;2023-10-31T08:40:24;2.10;;;0.88;;
11935;SDS011;6027;48.576;9.180;2023-10-31T08:42:50;1.73;;;0.82;;
11935;SDS011;6027;48.576;9.180;2023-10-31T08:45:15;1.67;;;1.05;;
11935;SDS011;6027;48.576;9.180;2023-10-31T08:47:41;2.35;;;1.00;;
11935;SDS011;6027;48.576;9.180;2023-10-31T08:50:07;2.20;;;1.00;;
11935;SDS011;6027;48.576;9.180;2023-10-31T08:52:34;1.60;;;0.90;;
11935;SDS011;6027;48.576;9.180;2023-10-31T08:54:59;1.15;;;1.02;;
11935;SDS011;6027;48.576;9.180;2023-10-31T08:57:25;3.75;;;1.42;;
11935;SDS011;6027;48.576;9.180;2023-10-31T08:59:50;2.42;;;1.25;;
11935;SDS011;6027;48.576;9.180;2023-10-31T09:02:16;3.80;;;1.10;;
11935;SDS011;6027;48.576;9.180;2023-10-31T09:04:41;3.63;;;1.00;;
11935;SDS011;6027;48.576;9.180;2023-10-31T09:07:07;4.32;;;1.23;;
11935;SDS011;6027;48.576;9.180;2023-10-31T09:09:33;4.32;;;1.10;;
11935;SDS011;6027;48.576;9.180;2023-10-31T09:11:58;2.15;;;1.17;;
11935;SDS011;6027;48.576;9.180;2023-10-31T09:14:24;4.85;;;1.38;;
11935;SDS011;6027;48.576;9.180;2023-10-31T09:16:49;2.65;;;1.20;;
11935;SDS011;6027;48.576;9.180;2023-10-31T09:19:15;3.47;;;1.00;;
11935;SDS011;6027;48.576;9.180;2023-10-31T09:21:40;3.15;;;1.20;;
11935;SDS011;6027;48.576;9.180;2023-10-31T09:24:06;2.83;;;1.20;;
11935;SDS011;6027;48.576;9.180;2023-10-31T09:26:32;5.00;;;1.23;;
11935;SDS011;6027;48.576;9.180;2023-10-31T09:28:58;2.55;;;1.10;;
11935;SDS011;6027;48.576;9.180;2023-10-31T09:31:24;1.70;;;0.80;;
11935;SDS011;6027;48.576;9.180;2023-10-31T09:33:49;3.58;;;1.00;;
11935;SDS011;6027;48.576;9.180;2023-10-31T09:36:15;3.88;;;1.20;;
11935;SDS011;6027;48.576;9.180;2023-10-31T09:38:40;3.58;;;0.93;;
11935;SDS011;6027;48.576;9.180;2023-10-31T09:41:06;3.17;;;1.20;;
11935;SDS011;6027;48.576;9.180;2023-10-31T09:43:32;3.55;;;1.20;;
11935;SDS011;6027;48.576;9.180;2023-10-31T09:45:57;2.13;;;1.08;;
11935;SDS011;6027;48.576;9.180;2023-10-31T09:48:28;3.75;;;1.30;;
11935;SDS011;6027;48.576;9.180;2023-10-31T09:50:54;4.00;;;1.23;;
11935;SDS011;6027;48.576;9.180;2023-10-31T09:53:20;3.38;;;0.98;;
11935;SDS011;6027;48.576;9.180;2023-10-31T09:55:47;1.38;;;0.88;;
11935;SDS011;6027;48.576;9.180;2023-10-31T09:58:12;3.30;;;1.08;;
11935;SDS011;6027;48.576;9.180;2023-10-31T10:00:38;3.40;;;1.10;;
11935;SDS011;6027;48.576;9.180;2023-10-31T10:03:06;3.08;;;1.20;;
11935;SDS011;6027;48.576;9.180;2023-10-31T10:05:35;3.33;;;1.27;;
11935;SDS011;6027;48.576;9.180;2023-10-31T10:08:02;3.40;;;1.20;;
11935;SDS011;6027;48.576;9.180;2023-10-31T10:10:29;3.33;;;1.08;;
11935;SDS011;6027;48.576;9.180;2023-10-31T10:12:55;3.72;;;1.10;;
11935;SDS011;6027;48.576;9.180;2023-10-31T10:15:21;2.25;;;1.08;;
11935;SDS011;6027;48.576;9.180;2023-10-31T10:17:52;4.45;;;1.52;;
11935;SDS011;6027;48.576;9.180;2023-10-31T10:20:18;4.18;;;1.08;;
11935;SDS011;6027;48.576;9.180;2023-10-31T10:22:44;3.30;;;1.17;;
11935;SDS011;6027;48.576;9.180;2023-10-31T10:25:11;2.40;;;1.00;;
11935;SDS011;6027;48.576;9.180;2023-10-31T10:27:39;4.10;;;1.30;;
11935;SDS011;6027;48.576;9.180;2023-10-31T10:30:07;3.70;;;1.13;;
11935;SDS011;6027;48.576;9.180;2023-10-31T10:32:33;2.13;;;1.20;;
11935;SDS011;6027;48.576;9.180;2023-10-31T10:34:59;2.88;;;1.13;;
11935;SDS011;6027;48.576;9.180;2023-10-31T10:37:29;4.82;;;1.27;;
11935;SDS011;6027;48.576;9.180;2023-10-31T10:39:55;2.55;;;1.10;;
11935;SDS011;6027;48.576;9.180;2023-10-31T10:42:44;3.75;;;1.33;;
11935;SDS011;6027;48.576;9.180;2023-10-31T10:45:12;3.05;;;1.13;;
11935;SDS011;6027;48.576;9.180;2023-10-31T10:47:41;3.05;;;1.23;;
11935;SDS011;6027;48.576;9.180;2023-10-31T10:50:11;1.67;;;0.82;;
11935;SDS011;6027;48.576;9.180;2023-10-31T10:52:44;3.83;;;1.30;;
11935;SDS011;6027;48.576;9.180;2023-10-31T10:55:24;3.30;;;1.13;;
11935;SDS011;6027;48.576;9.180;2023-10-31T10:58:00;2.08;;;1.10;;
11935;SDS011;6027;48.576;9.180;2023-10-31T11:00:30;1.20;;;0.90;;
11935;SDS011;6027;48.576;9.180;2023-10-31T11:02:56;3.72;;;1.40;;
11935;SDS011;6027;48.576;9.180;2023-10-31T11:05:25;2.70;;;1.20;;
11935;SDS011;6027;48.576;9.180;2023-10-31T11:07:51;1.80;;;1.10;;
11935;SDS011;6027;48.576;9.180;2023-10-31T11:10:17;4.53;;;1.02;;
11935;SDS011;6027;48.576;9.180;2023-10-31T11:12:43;3.05;;;1.30;;
11935;SDS011;6027;48.576;9.180;2023-10-31T11:15:10;2.58;;;1.20;;
11935;SDS011;6027;48.576;9.180;2023-10-31T11:17:40;3.00;;;1.33;;
11935;SDS011;6027;48.576;9.180;2023-10-31T11:20:09;2.40;;;0.90;;
11935;SDS011;6027;48.576;9.180;2023-10-31T11:22:44;2.85;;;1.00;;
11935;SDS011;6027;48.576;9.180;2023-10-31T11:25:20;2.75;;;0.90;;
11935;SDS011;6027;48.576;9.180;2023-10-31T11:27:51;2.40;;;0.80;;
11935;SDS011;6027;48.576;9.180;2023-10-31T11:30:28;1.75;;;0.80;;
11935;SDS011;6027;48.576;9.180;2023-10-31T11:32:55;1.88;;;0.70;;
11935;SDS011;6027;48.576;9.180;2023-10-31T11:35:22;2.20;;;0.90;;
11935;SDS011;6027;48.576;9.180;2023-10-31T11:38:30;1.10;;;0.60;;
11935;SDS011;6027;48.576;9.180;2023-10-31T11:40:59;1.17;;;0.52;;
11935;SDS011;6027;48.576;9.180;2023-10-31T11:43:34;2.78;;;1.27;;
11935;SDS011;6027;48.576;9.180;2023-10-31T11:46:19;1.02;;;0.70;;
11935;SDS011;6027;48.576;9.180;2023-10-31T11:48:53;2.30;;;0.57;;
11935;SDS011;6027;48.576;9.180;2023-10-31T11:51:21;1.25;;;1.00;;
11935;SDS011;6027;48.576;9.180;2023-10-31T11:53:47;2.38;;;1.40;;
11935;SDS011;6027;48.576;9.180;2023-10-31T11:56:17;3.45;;;0.85;;
11935;SDS011;6027;48.576;9.180;2023-10-31T11:58:42;1.38;;;0.80;;
11935;SDS011;6027;48.576;9.180;2023-10-31T12:01:08;1.10;;;0.95;;
11935;SDS011;6027;48.576;9.180;2023-10-31T12:03:41;2.17;;;1.20;;
11935;SDS011;6027;48.576;9.180;2023-10-31T12:06:11;1.45;;;0.70;;
11935;SDS011;6027;48.576;9.180;2023-10-31T12:08:38;1.27;;;0.45;;
11935;SDS011;6027;48.576;9.180;2023-10-31T12:11:06;0.98;;;0.50;;
11935;SDS011;6027;48.576;9.180;2023-10-31T12:13:33;0.73;;;0.50;;
11935;SDS011;6027;48.576;9.180;2023-10-31T12:16:00;0.77;;;0.50;;
11935;SDS011;6027;48.576;9.180;2023-10-31T12:18:27;0.98;;;0.70;;
11935;SDS011;6027;48.576;9.180;2023-10-31T12:20:53;0.63;;;0.40;;
11935;SDS011;6027;48.576;9.180;2023-10-31T12:23:18;0.77;;;0.30;;
11935;SDS011;6027;48.576;9.180;2023-10-31T12:25:47;0.98;;;0.50;;
11935;SDS011;6027;48.576;9.180;2023-10-31T12:28:22;0.45;;;0.40;;
11935;SDS011;6027;48.576;9.180;2023-10-31T12:30:50;1.65;;;0.50;;
11935;SDS011;6027;48.576;9.180;2023-10-31T12:33:19;1.73;;;0.70;;
11935;SDS011;6027;48.576;9.180;2023-10-31T12:35:47;1.17;;;0.32;;
11935;SDS011;6027;48.576;9.180;2023-10-31T12:38:14;1.40;;;0.60;;
11935;SDS011;6027;48.576;9.180;2023-10-31T12:40:41;1.08;;;0.50;;
11935;SDS011;6027;48.576;9.180;2023-10-31T12:43:08;2.45;;;0.50;;
11935;SDS011;6027;48.576;9.180;2023-10-31T12:45:35;0.57;;;0.50;;
11935;SDS011;6027;48.576;9.180;2023-10-31T12:48:07;1.02;;;0.60;;
11935;SDS011;6027;48.576;9.180;2023-10-31T12:50:34;0.88;;;0.60;;
11935;SDS011;6027;48.576;9.180;2023-10-31T12:53:05;1.50;;;0.50;;
11935;SDS011;6027;48.576;9.180;2023-10-31T12:55:37;1.10;;;0.57;;
11935;SDS011;6027;48.576;9.180;2023-10-31T12:58:04;1.83;;;0.60;;
11935;SDS011;6027;48.576;9.180;2023-10-31T13:00:35;2.75;;;0.70;;
11935;SDS011;6027;48.576;9.180;2023-10-31T13:03:05;1.33;;;0.50;;
11935;SDS011;6027;48.576;9.180;2023-10-31T13:05:31;1.30;;;0.65;;
11935;SDS011;6027;48.576;9.180;2023-10-31T13:07:58;1.33;;;0.60;;
11935;SDS011;6027;48.576;9.180;2023-10-31T13:10:28;0.95;;;0.63;;
11935;SDS011;6027;48.576;9.180;2023-10-31T13:12:54;0.65;;;0.40;;
11935;SDS011;6027;48.576;9.180;2023-10-31T13:15:22;1.73;;;0.60;;
11935;SDS011;6027;48.576;9.180;2023-10-31T13:17:49;0.70;;;0.55;;
11935;SDS011;6027;48.576;9.180;2023-10-31T13:20:16;1.92;;;0.73;;
11935;SDS011;6027;48.576;9.180;2023-10-31T13:22:43;1.65;;;0.55;;
11935;SDS011;6027;48.576;9.180;2023-10-31T13:25:10;1.50;;;0.50;;
11935;SDS011;6027;48.576;9.180;2023-10-31T13:27:36;1.23;;;0.50;;
11935;SDS011;6027;48.576;9.180;2023-10-31T13:30:06;0.40;;;0.40;;
11935;SDS011;6027;48.576;9.180;2023-10-31T13:32:33;1.45;;;0.63;;
11935;SDS011;6027;48.576;9.180;2023-10-31T13:34:58;0.90;;;0.60;;
11935;SDS011;6027;48.576;9.180;2023-10-31T13:37:24;1.58;;;0.60;;
11935;SDS011;6027;48.576;9.180;2023-10-31T13:39:50;2.28;;;0.60;;
11935;SDS011;6027;48.576;9.180;2023-10-31T13:42:16;1.40;;;0.70;;
11935;SDS011;6027;48.576;9.180;2023-10-31T13:44:42;0.85;;;0.45;;
11935;SDS011;6027;48.576;9.180;2023-10-31T13:47:08;0.95;;;0.60;;
11935;SDS011;6027;48.576;9.180;2023-10-31T13:49:35;1.75;;;0.57;;
11935;SDS011;6027;48.576;9.180;2023-10-31T13:52:02;1.30;;;0.65;;
11935;SDS011;6027;48.576;9.180;2023-10-31T13:54:28;1.20;;;0.60;;
11935;SDS011;6027;48.576;9.180;2023-10-31T13:56:54;2.30;;;0.57;;
11935;SDS011;6027;48.576;9.180;2023-10-31T13:59:19;1.30;;;0.55;;
11935;SDS011;6027;48.576;9.180;2023-10-31T14:01:45;1.15;;;0.55;;
11935;SDS011;6027;48.576;9.180;2023-10-31T14:04:11;0.90;;;0.68;;
11935;SDS011;6027;48.576;9.180;2023-10-31T14:06:40;1.98;;;0.60;;
11935;SDS011;6027;48.576;9.180;2023-10-31T14:09:08;2.72;;;0.65;;
11935;SDS011;6027;48.576;9.180;2023-10-31T14:11:34;1.45;;;0.40;;
11935;SDS011;6027;48.576;9.180;2023-10-31T14:14:00;1.25;;;0.70;;
11935;SDS011;6027;48.576;9.180;2023-10-31T14:16:31;1.05;;;0.52;;
11935;SDS011;6027;48.576;9.180;2023-10-31T14:18:59;0.90;;;0.60;;
11935;SDS011;6027;48.576;9.180;2023-10-31T14:21:25;3.70;;;0.60;;
11935;SDS011;6027;48.576;9.180;2023-10-31T14:23:51;0.90;;;0.77;;
11935;SDS011;6027;48.576;9.180;2023-10-31T14:26:20;1.10;;;0.60;;
11935;SDS011;6027;48.576;9.180;2023-10-31T14:28:46;1.52;;;0.70;;
11935;SDS011;6027;48.576;9.180;2023-10-31T14:31:12;0.93;;;0.63;;
11935;SDS011;6027;48.576;9.180;2023-10-31T14:33:37;1.10;;;0.80;;
11935;SDS011;6027;48.576;9.180;2023-10-31T14:36:03;2.28;;;0.75;;
11935;SDS011;6027;48.576;9.180;2023-10-31T14:38:29;1.58;;;0.50;;
11935;SDS011;6027;48.576;9.180;2023-10-31T14:40:54;2.90;;;0.63;;
11935;SDS011;6027;48.576;9.180;2023-10-31T14:43:20;1.02;;;0.70;;
11935;SDS011;6027;48.576;9.180;2023-10-31T14:45:45;0.88;;;0.60;;
11935;SDS011;6027;48.576;9.180;2023-10-31T14:48:11;2.05;;;0.73;;
11935;SDS011;6027;48.576;9.180;2023-10-31T14:50:36;0.85;;;0.70;;
11935;SDS011;6027;48.576;9.180;2023-10-31T14:53:03;1.00;;;0.60;;
11935;SDS011;6027;48.576;9.180;2023-10-31T14:55:30;1.65;;;0.50;;